createdAt,value
2022-10-05T00:00:50.066Z,1011.01
2022-10-05T00:01:50.116Z,1010.98
2022-10-05T00:02:50.026Z,1010.93
2022-10-05T00:03:50.068Z,1010.92
2022-10-05T00:04:50.025Z,1010.95
2022-10-05T00:05:50.011Z,1010.90
2022-10-05T00:06:49.977Z,1010.87
2022-10-05T00:07:49.944Z,1010.90
2022-10-05T00:08:49.927Z,1010.84
2022-10-05T00:09:49.957Z,1010.81
2022-10-05T00:10:49.903Z,1010.81
2022-10-05T00:11:49.909Z,1010.78
2022-10-05T00:12:49.992Z,1010.78
2022-10-05T00:13:49.923Z,1010.77
2022-10-05T00:14:49.895Z,1010.70
2022-10-05T00:15:49.869Z,1010.71
2022-10-05T00:16:50.387Z,1010.69
2022-10-05T00:17:49.801Z,1010.66
2022-10-05T00:18:49.864Z,1010.65
2022-10-05T00:19:48.800Z,1010.69
2022-10-05T00:20:49.811Z,1010.73
2022-10-05T00:21:49.814Z,1010.72
2022-10-05T00:22:49.811Z,1010.72
2022-10-05T00:23:49.801Z,1010.71
2022-10-05T00:24:49.718Z,1010.74
2022-10-05T00:25:49.704Z,1010.68
2022-10-05T00:26:54.007Z,1010.63
2022-10-05T00:27:49.677Z,1010.64
2022-10-05T00:28:49.721Z,1010.60
2022-10-05T00:29:49.710Z,1010.60
2022-10-05T00:30:49.653Z,1010.61
2022-10-05T00:31:49.682Z,1010.57
2022-10-05T00:32:49.657Z,1010.60
2022-10-05T00:33:49.630Z,1010.65
2022-10-05T00:34:49.632Z,1010.64
2022-10-05T00:35:49.711Z,1010.68
2022-10-05T00:36:49.936Z,1010.65
2022-10-05T00:37:49.538Z,1010.64
2022-10-05T00:38:49.633Z,1010.68
2022-10-05T00:39:49.516Z,1010.69
2022-10-05T00:40:49.510Z,1010.66
2022-10-05T00:41:49.531Z,1010.72
2022-10-05T00:42:49.523Z,1010.69
2022-10-05T00:43:49.490Z,1010.66
2022-10-05T00:44:49.462Z,1010.64
2022-10-05T00:45:49.507Z,1010.63
2022-10-05T00:46:49.481Z,1010.64
2022-10-05T00:47:49.472Z,1010.66
2022-10-05T00:48:49.437Z,1010.71
2022-10-05T00:49:49.380Z,1010.70
2022-10-05T00:50:49.390Z,1010.67
2022-10-05T00:51:49.732Z,1010.67
2022-10-05T00:52:49.495Z,1010.64
2022-10-05T00:53:49.374Z,1010.62
2022-10-05T00:54:49.317Z,1010.64
2022-10-05T00:55:49.330Z,1010.60
2022-10-05T00:56:49.304Z,1010.57
2022-10-05T00:57:49.282Z,1010.58
2022-10-05T00:58:49.277Z,1010.50
2022-10-05T00:59:49.249Z,1010.49
2022-10-05T01:00:49.291Z,1010.50
2022-10-05T01:01:49.319Z,1010.49
2022-10-05T01:02:49.246Z,1010.46
2022-10-05T01:03:49.193Z,1010.43
2022-10-05T01:04:49.180Z,1010.38
2022-10-05T01:05:49.205Z,1010.39
2022-10-05T01:06:49.198Z,1010.39
2022-10-05T01:07:49.153Z,1010.37
2022-10-05T01:08:49.176Z,1010.35
2022-10-05T01:09:49.113Z,1010.38
2022-10-05T01:10:49.160Z,1010.43
2022-10-05T01:11:49.091Z,1010.43
2022-10-05T01:12:49.084Z,1010.43
2022-10-05T01:13:49.076Z,1010.43
2022-10-05T01:14:49.081Z,1010.44
2022-10-05T01:15:49.041Z,1010.36
2022-10-05T01:16:49.607Z,1010.41
2022-10-05T01:17:49.017Z,1010.39
2022-10-05T01:18:49.047Z,1010.37
2022-10-05T01:19:48.972Z,1010.38
2022-10-05T01:20:49.039Z,1010.40
2022-10-05T01:21:48.976Z,1010.39
2022-10-05T01:22:48.953Z,1010.40
2022-10-05T01:23:48.964Z,1010.39
2022-10-05T01:24:49.043Z,1010.37
2022-10-05T01:25:48.903Z,1010.36
2022-10-05T01:26:49.276Z,1010.37
2022-10-05T01:27:48.912Z,1010.36
2022-10-05T01:28:48.897Z,1010.36
2022-10-05T01:29:48.845Z,1010.35
2022-10-05T01:30:48.843Z,1010.34
2022-10-05T01:31:48.907Z,1010.38
2022-10-05T01:32:48.872Z,1010.30
2022-10-05T01:33:49.009Z,1010.30
2022-10-05T01:34:48.834Z,1010.29
2022-10-05T01:35:48.774Z,1010.30
2022-10-05T01:36:49.179Z,1010.31
2022-10-05T01:37:48.904Z,1010.33
2022-10-05T01:38:48.776Z,1010.34
2022-10-05T01:39:48.806Z,1010.30
2022-10-05T01:40:48.721Z,1010.32
2022-10-05T01:41:48.733Z,1010.31
2022-10-05T01:42:48.688Z,1010.28
2022-10-05T01:43:48.669Z,1010.24
2022-10-05T01:44:48.678Z,1010.20
2022-10-05T01:45:48.757Z,1010.23
2022-10-05T01:46:49.043Z,1010.17
2022-10-05T01:47:48.616Z,1010.18
2022-10-05T01:48:48.637Z,1010.15
2022-10-05T01:49:48.591Z,1010.15
2022-10-05T01:50:48.612Z,1010.15
2022-10-05T01:51:48.578Z,1010.18
2022-10-05T01:52:48.602Z,1010.11
2022-10-05T01:53:48.558Z,1010.08
2022-10-05T01:54:48.536Z,1010.05
2022-10-05T01:55:48.508Z,1009.99
2022-10-05T01:56:48.886Z,1010.06
2022-10-05T01:57:48.561Z,1010.05
2022-10-05T01:58:48.481Z,1010.08
2022-10-05T01:59:48.506Z,1010.05
2022-10-05T02:00:48.484Z,1010.08
2022-10-05T02:01:48.568Z,1010.06
2022-10-05T02:02:48.459Z,1010.05
2022-10-05T02:03:48.433Z,1010.05
2022-10-05T02:05:03.721Z,1010.08
2022-10-05T02:05:48.407Z,1010.09
2022-10-05T02:06:48.799Z,1010.09
2022-10-05T02:07:48.386Z,1010.07
2022-10-05T02:08:48.373Z,1010.08
2022-10-05T02:09:48.417Z,1010.06
2022-10-05T02:10:48.319Z,1010.12
2022-10-05T02:11:48.305Z,1010.05
2022-10-05T02:12:48.295Z,1010.09
2022-10-05T02:13:47.316Z,1010.12
2022-10-05T02:14:48.282Z,1010.12
2022-10-05T02:15:48.310Z,1010.14
2022-10-05T02:16:48.729Z,1010.05
2022-10-05T02:17:48.213Z,1010.03
2022-10-05T02:18:48.209Z,1010.05
2022-10-05T02:19:48.173Z,1010.02
2022-10-05T02:20:48.196Z,1009.99
2022-10-05T02:21:48.187Z,1010.01
2022-10-05T02:22:48.204Z,1010.01
2022-10-05T02:23:48.169Z,1010.01
2022-10-05T02:24:48.125Z,1010.01
2022-10-05T02:25:48.123Z,1010.01
2022-10-05T02:26:48.591Z,1010.03
2022-10-05T02:27:48.088Z,1010.04
2022-10-05T02:28:48.156Z,1010.08
2022-10-05T02:29:48.092Z,1010.10
2022-10-05T02:30:48.059Z,1010.11
2022-10-05T02:31:48.171Z,1010.07
2022-10-05T02:32:48.137Z,1010.08
2022-10-05T02:33:48.002Z,1010.06
2022-10-05T02:34:48.026Z,1010.07
2022-10-05T02:35:48.005Z,1010.00
2022-10-05T02:36:48.441Z,1010.02
2022-10-05T02:37:47.959Z,1010.02
2022-10-05T02:38:47.931Z,1010.00
2022-10-05T02:39:47.915Z,1009.98
2022-10-05T02:40:47.903Z,1009.96
2022-10-05T02:41:47.904Z,1009.96
2022-10-05T02:42:47.961Z,1009.92
2022-10-05T02:43:47.872Z,1009.93
2022-10-05T02:44:47.857Z,1009.90
2022-10-05T02:45:47.954Z,1009.85
2022-10-05T02:46:50.774Z,1009.85
2022-10-05T02:47:47.915Z,1009.83
2022-10-05T02:48:47.803Z,1009.84
2022-10-05T02:49:47.801Z,1009.80
2022-10-05T02:50:47.770Z,1009.82
2022-10-05T02:51:47.806Z,1009.75
2022-10-05T02:52:47.771Z,1009.73
2022-10-05T02:53:47.730Z,1009.71
2022-10-05T02:54:47.729Z,1009.65
2022-10-05T02:55:47.707Z,1009.68
2022-10-05T02:56:48.355Z,1009.63
2022-10-05T02:57:47.774Z,1009.57
2022-10-05T02:58:47.673Z,1009.58
2022-10-05T02:59:47.691Z,1009.54
2022-10-05T03:00:47.774Z,1009.54
2022-10-05T03:01:47.670Z,1009.54
2022-10-05T03:02:47.633Z,1009.55
2022-10-05T03:03:47.598Z,1009.57
2022-10-05T03:04:47.628Z,1009.57
2022-10-05T03:05:47.606Z,1009.53
2022-10-05T03:06:47.976Z,1009.49
2022-10-05T03:07:47.546Z,1009.48
2022-10-05T03:08:47.615Z,1009.49
2022-10-05T03:09:47.529Z,1009.48
2022-10-05T03:10:47.522Z,1009.49
2022-10-05T03:11:47.508Z,1009.51
2022-10-05T03:12:47.502Z,1009.46
2022-10-05T03:13:47.486Z,1009.47
2022-10-05T03:14:47.453Z,1009.42
2022-10-05T03:15:47.504Z,1009.45
2022-10-05T03:16:48.001Z,1009.40
2022-10-05T03:17:47.493Z,1009.43
2022-10-05T03:18:47.409Z,1009.41
2022-10-05T03:19:47.425Z,1009.42
2022-10-05T03:20:47.452Z,1009.42
2022-10-05T03:21:47.391Z,1009.38
2022-10-05T03:22:47.382Z,1009.37
2022-10-05T03:23:47.358Z,1009.42
2022-10-05T03:24:47.332Z,1009.34
2022-10-05T03:25:47.329Z,1009.34
2022-10-05T03:26:47.636Z,1009.35
2022-10-05T03:27:47.330Z,1009.27
2022-10-05T03:28:47.275Z,1009.23
2022-10-05T03:29:47.262Z,1009.25
2022-10-05T03:30:47.284Z,1009.26
2022-10-05T03:31:47.237Z,1009.22
2022-10-05T03:32:47.276Z,1009.18
2022-10-05T03:33:47.278Z,1009.20
2022-10-05T03:34:47.232Z,1009.20
2022-10-05T03:35:47.220Z,1009.23
2022-10-05T03:36:47.570Z,1009.22
2022-10-05T03:37:47.196Z,1009.21
2022-10-05T03:38:47.188Z,1009.22
2022-10-05T03:39:47.132Z,1009.22
2022-10-05T03:40:47.117Z,1009.21
2022-10-05T03:41:47.122Z,1009.20
2022-10-05T03:42:47.125Z,1009.17
2022-10-05T03:43:47.168Z,1009.17
2022-10-05T03:44:47.073Z,1009.13
2022-10-05T03:45:47.109Z,1009.20
2022-10-05T03:46:47.435Z,1009.15
2022-10-05T03:47:47.063Z,1009.17
2022-10-05T03:48:47.014Z,1009.15
2022-10-05T03:49:46.986Z,1009.17
2022-10-05T03:50:47.027Z,1009.15
2022-10-05T03:51:46.987Z,1009.17
2022-10-05T03:52:47.017Z,1009.09
2022-10-05T03:53:47.012Z,1009.13
2022-10-05T03:54:46.919Z,1009.07
2022-10-05T03:55:46.969Z,1009.08
2022-10-05T03:56:47.299Z,1009.10
2022-10-05T03:57:46.899Z,1009.13
2022-10-05T03:58:46.883Z,1009.06
2022-10-05T03:59:46.947Z,1009.09
2022-10-05T04:00:46.830Z,1009.08
2022-10-05T04:01:46.943Z,1009.11
2022-10-05T04:02:46.929Z,1009.08
2022-10-05T04:03:46.896Z,1009.09
2022-10-05T04:04:46.810Z,1009.11
2022-10-05T04:05:46.788Z,1009.13
2022-10-05T04:06:47.137Z,1009.06
2022-10-05T04:07:46.801Z,1009.04
2022-10-05T04:08:48.024Z,1009.03
2022-10-05T04:09:46.723Z,1008.97
2022-10-05T04:10:46.770Z,1008.98
2022-10-05T04:11:46.733Z,1008.96
2022-10-05T04:12:46.735Z,1008.94
2022-10-05T04:13:46.683Z,1008.92
2022-10-05T04:14:46.721Z,1008.94
2022-10-05T04:15:46.707Z,1008.93
2022-10-05T04:16:48.758Z,1008.93
2022-10-05T04:17:46.613Z,1008.89
2022-10-05T04:18:46.693Z,1008.93
2022-10-05T04:19:46.621Z,1008.92
2022-10-05T04:20:46.578Z,1008.91
2022-10-05T04:21:46.558Z,1008.92
2022-10-05T04:22:46.572Z,1008.90
2022-10-05T04:23:46.570Z,1008.99
2022-10-05T04:24:46.512Z,1009.06
2022-10-05T04:25:46.584Z,1009.03
2022-10-05T04:26:46.950Z,1009.07
2022-10-05T04:27:46.487Z,1009.09
2022-10-05T04:28:46.573Z,1009.10
2022-10-05T04:29:46.499Z,1009.12
2022-10-05T04:30:46.458Z,1009.10
2022-10-05T04:31:46.474Z,1009.13
2022-10-05T04:32:46.420Z,1009.12
2022-10-05T04:33:46.435Z,1009.16
2022-10-05T04:34:46.402Z,1009.14
2022-10-05T04:35:46.410Z,1009.19
2022-10-05T04:36:46.582Z,1009.15
2022-10-05T04:37:46.778Z,1009.11
2022-10-05T04:38:46.342Z,1009.20
2022-10-05T04:39:46.359Z,1009.16
2022-10-05T04:40:46.342Z,1009.13
2022-10-05T04:41:46.352Z,1009.20
2022-10-05T04:42:46.272Z,1009.16
2022-10-05T04:43:46.321Z,1009.17
2022-10-05T04:44:46.268Z,1009.18
2022-10-05T04:45:46.242Z,1009.16
2022-10-05T04:46:46.511Z,1009.14
2022-10-05T04:47:46.276Z,1009.10
2022-10-05T04:48:46.251Z,1009.05
2022-10-05T04:49:46.177Z,1009.07
2022-10-05T04:50:46.179Z,1009.09
2022-10-05T04:51:50.874Z,1009.06
2022-10-05T04:52:46.139Z,1009.03
2022-10-05T04:53:46.194Z,1009.08
2022-10-05T04:54:46.133Z,1009.03
2022-10-05T04:55:46.141Z,1009.08
2022-10-05T04:56:46.419Z,1009.06
2022-10-05T04:57:46.133Z,1009.02
2022-10-05T04:58:46.078Z,1009.06
2022-10-05T04:59:46.050Z,1009.06
2022-10-05T05:00:46.264Z,1009.07
2022-10-05T05:01:46.035Z,1009.08
2022-10-05T05:02:46.023Z,1009.10
2022-10-05T05:03:46.146Z,1009.13
2022-10-05T05:04:50.818Z,1009.10
2022-10-05T05:06:12.109Z,1009.10
2022-10-05T05:06:46.260Z,1009.09
2022-10-05T05:07:45.941Z,1009.11
2022-10-05T05:08:45.935Z,1009.05
2022-10-05T05:09:45.907Z,1009.02
2022-10-05T05:10:45.897Z,1009.05
2022-10-05T05:11:45.915Z,1009.05
2022-10-05T05:12:45.890Z,1009.10
2022-10-05T05:13:45.926Z,1009.03
2022-10-05T05:14:45.857Z,1009.08
2022-10-05T05:15:45.856Z,1009.06
2022-10-05T05:16:46.101Z,1009.08
2022-10-05T05:17:45.815Z,1009.02
2022-10-05T05:18:45.795Z,1009.04
2022-10-05T05:19:45.769Z,1009.03
2022-10-05T05:20:45.806Z,1009.00
2022-10-05T05:21:45.740Z,1009.01
2022-10-05T05:22:45.717Z,1009.00
2022-10-05T05:23:45.804Z,1009.02
2022-10-05T05:24:45.699Z,1009.04
2022-10-05T05:25:45.729Z,1009.03
2022-10-05T05:26:45.778Z,1009.05
2022-10-05T05:27:45.662Z,1009.03
2022-10-05T05:28:45.641Z,1009.01
2022-10-05T05:29:45.647Z,1009.02
2022-10-05T05:30:45.620Z,1009.01
2022-10-05T05:31:45.742Z,1008.98
2022-10-05T05:32:45.620Z,1009.02
2022-10-05T05:33:45.661Z,1009.03
2022-10-05T05:34:45.594Z,1009.00
2022-10-05T05:35:45.580Z,1009.00
2022-10-05T05:36:45.841Z,1009.04
2022-10-05T05:37:45.517Z,1009.02
2022-10-05T05:38:45.557Z,1009.02
2022-10-05T05:39:45.503Z,1009.07
2022-10-05T05:40:45.562Z,1009.02
2022-10-05T05:41:45.481Z,1009.08
2022-10-05T05:42:45.472Z,1009.05
2022-10-05T05:43:45.461Z,1009.07
2022-10-05T05:44:45.454Z,1009.07
2022-10-05T05:45:45.427Z,1009.05
2022-10-05T05:47:03.089Z,1009.08
2022-10-05T05:47:45.457Z,1009.05
2022-10-05T05:48:45.382Z,1009.08
2022-10-05T05:49:45.376Z,1009.04
2022-10-05T05:50:45.404Z,1009.05
2022-10-05T05:51:45.333Z,1009.03
2022-10-05T05:52:45.317Z,1009.03
2022-10-05T05:53:45.292Z,1009.02
2022-10-05T05:54:45.311Z,1009.00
2022-10-05T05:55:45.309Z,1009.02
2022-10-05T05:56:45.550Z,1009.00
2022-10-05T05:57:45.244Z,1008.99
2022-10-05T05:58:45.313Z,1009.03
2022-10-05T05:59:45.245Z,1009.02
2022-10-05T06:00:45.232Z,1008.97
2022-10-05T06:01:45.322Z,1008.99
2022-10-05T06:02:45.361Z,1008.97
2022-10-05T06:03:45.210Z,1008.99
2022-10-05T06:04:45.162Z,1008.95
2022-10-05T06:05:45.179Z,1009.01
2022-10-05T06:06:45.482Z,1009.00
2022-10-05T06:07:45.108Z,1008.98
2022-10-05T06:08:45.099Z,1008.99
2022-10-05T06:09:45.088Z,1009.02
2022-10-05T06:10:45.089Z,1008.92
2022-10-05T06:11:45.069Z,1008.95
2022-10-05T06:12:45.041Z,1008.93
2022-10-05T06:13:45.140Z,1008.94
2022-10-05T06:14:45.043Z,1008.93
2022-10-05T06:15:45.010Z,1008.95
2022-10-05T06:16:45.473Z,1008.91
2022-10-05T06:17:45.014Z,1008.90
2022-10-05T06:18:44.984Z,1008.93
2022-10-05T06:19:44.941Z,1008.88
2022-10-05T06:20:44.929Z,1008.93
2022-10-05T06:21:44.916Z,1008.93
2022-10-05T06:22:44.965Z,1008.94
2022-10-05T06:23:44.889Z,1008.94
2022-10-05T06:24:44.882Z,1008.94
2022-10-05T06:25:46.895Z,1008.93
2022-10-05T06:26:45.126Z,1008.89
2022-10-05T06:27:44.868Z,1008.97
2022-10-05T06:28:44.837Z,1008.97
2022-10-05T06:29:44.857Z,1008.97
2022-10-05T06:30:44.840Z,1009.05
2022-10-05T06:31:44.896Z,1009.01
2022-10-05T06:32:44.772Z,1009.04
2022-10-05T06:33:44.774Z,1009.04
2022-10-05T06:34:44.820Z,1009.03
2022-10-05T06:35:44.763Z,1009.01
2022-10-05T06:36:45.022Z,1009.05
2022-10-05T06:37:44.776Z,1009.03
2022-10-05T06:38:44.679Z,1009.02
2022-10-05T06:39:44.729Z,1009.02
2022-10-05T06:40:44.800Z,1009.03
2022-10-05T06:41:44.648Z,1009.06
2022-10-05T06:42:44.661Z,1009.08
2022-10-05T06:43:44.706Z,1009.12
2022-10-05T06:44:44.708Z,1009.05
2022-10-05T06:45:44.733Z,1009.07
2022-10-05T06:46:44.879Z,1009.07
2022-10-05T06:47:44.572Z,1009.05
2022-10-05T06:48:44.540Z,1009.06
2022-10-05T06:49:44.575Z,1009.12
2022-10-05T06:50:44.556Z,1009.06
2022-10-05T06:51:44.501Z,1009.07
2022-10-05T06:52:44.493Z,1009.04
2022-10-05T06:53:44.498Z,1009.08
2022-10-05T06:54:44.526Z,1009.06
2022-10-05T06:55:44.484Z,1009.04
2022-10-05T06:56:44.811Z,1009.02
2022-10-05T06:57:44.404Z,1009.05
2022-10-05T06:58:44.401Z,1008.98
2022-10-05T06:59:44.445Z,1008.98
2022-10-05T07:00:44.455Z,1008.99
2022-10-05T07:01:44.678Z,1008.97
2022-10-05T07:02:44.359Z,1009.00
2022-10-05T07:03:44.392Z,1009.01
2022-10-05T07:04:44.307Z,1009.01
2022-10-05T07:05:44.343Z,1008.98
2022-10-05T07:06:44.310Z,1008.98
2022-10-05T07:07:44.300Z,1008.94
2022-10-05T07:08:44.263Z,1008.98
2022-10-05T07:09:44.274Z,1008.96
2022-10-05T07:10:44.225Z,1008.94
2022-10-05T07:11:44.724Z,1008.96
2022-10-05T07:12:44.199Z,1008.96
2022-10-05T07:13:44.198Z,1008.95
2022-10-05T07:14:44.221Z,1008.94
2022-10-05T07:15:44.208Z,1008.98
2022-10-05T07:16:44.194Z,1008.95
2022-10-05T07:17:44.186Z,1008.96
2022-10-05T07:18:44.163Z,1008.97
2022-10-05T07:19:44.101Z,1008.91
2022-10-05T07:20:48.906Z,1008.93
2022-10-05T07:21:44.456Z,1008.95
2022-10-05T07:22:44.125Z,1008.95
2022-10-05T07:23:44.090Z,1008.96
2022-10-05T07:24:44.121Z,1008.96
2022-10-05T07:25:44.231Z,1009.00
2022-10-05T07:26:44.478Z,1008.94
2022-10-05T07:27:47.082Z,1008.91
2022-10-05T07:28:44.117Z,1008.91
2022-10-05T07:29:43.980Z,1008.93
2022-10-05T07:30:44.126Z,1008.94
2022-10-05T07:31:44.004Z,1008.94
2022-10-05T07:32:47.713Z,1008.94
2022-10-05T07:34:07.704Z,1008.97
2022-10-05T07:34:43.940Z,1008.94
2022-10-05T07:35:43.894Z,1008.97
2022-10-05T07:36:44.334Z,1009.01
2022-10-05T07:37:43.862Z,1009.01
2022-10-05T07:38:43.897Z,1009.00
2022-10-05T07:39:59.472Z,1008.99
2022-10-05T07:40:43.860Z,1009.04
2022-10-05T07:41:43.815Z,1009.06
2022-10-05T07:42:50.648Z,1009.05
2022-10-05T07:44:13.135Z,1009.06
2022-10-05T07:44:43.932Z,1009.08
2022-10-05T07:45:43.850Z,1009.11
2022-10-05T07:46:43.875Z,1009.08
2022-10-05T07:47:43.770Z,1009.13
2022-10-05T07:48:43.754Z,1009.11
2022-10-05T07:49:43.756Z,1009.17
2022-10-05T07:50:43.704Z,1009.12
2022-10-05T07:51:43.760Z,1009.19
2022-10-05T07:52:43.670Z,1009.18
2022-10-05T07:53:43.686Z,1009.18
2022-10-05T07:54:43.722Z,1009.14
2022-10-05T07:55:43.606Z,1009.14
2022-10-05T07:56:44.023Z,1009.17
2022-10-05T07:57:43.656Z,1009.21
2022-10-05T07:58:43.603Z,1009.24
2022-10-05T07:59:43.559Z,1009.17
2022-10-05T08:00:43.542Z,1009.20
2022-10-05T08:01:43.586Z,1009.21
2022-10-05T08:02:43.589Z,1009.28
2022-10-05T08:03:43.529Z,1009.30
2022-10-05T08:04:43.537Z,1009.25
2022-10-05T08:05:43.487Z,1009.21
2022-10-05T08:06:43.864Z,1009.27
2022-10-05T08:07:43.488Z,1009.27
2022-10-05T08:08:43.512Z,1009.18
2022-10-05T08:09:43.427Z,1009.28
2022-10-05T08:10:43.455Z,1009.21
2022-10-05T08:11:45.632Z,1009.18
2022-10-05T08:12:43.417Z,1009.21
2022-10-05T08:13:43.400Z,1009.18
2022-10-05T08:14:43.403Z,1009.19
2022-10-05T08:15:43.405Z,1009.20
2022-10-05T08:16:43.321Z,1009.11
2022-10-05T08:17:43.321Z,1009.15
2022-10-05T08:18:43.339Z,1009.18
2022-10-05T08:19:43.335Z,1009.10
2022-10-05T08:20:43.274Z,1009.06
2022-10-05T08:21:43.300Z,1009.14
2022-10-05T08:22:43.287Z,1009.13
2022-10-05T08:23:43.276Z,1009.12
2022-10-05T08:24:43.215Z,1009.09
2022-10-05T08:25:43.201Z,1009.12
2022-10-05T08:26:43.202Z,1009.10
2022-10-05T08:27:43.179Z,1009.07
2022-10-05T08:28:43.218Z,1009.12
2022-10-05T08:29:43.174Z,1009.10
2022-10-05T08:30:43.138Z,1009.07
2022-10-05T08:31:43.179Z,1009.11
2022-10-05T08:32:43.131Z,1009.13
2022-10-05T08:33:43.110Z,1009.09
2022-10-05T08:34:43.149Z,1009.13
2022-10-05T08:35:43.095Z,1009.12
2022-10-05T08:36:43.102Z,1009.11
2022-10-05T08:37:42.053Z,1009.11
2022-10-05T08:38:43.025Z,1009.10
2022-10-05T08:39:43.031Z,1009.09
2022-10-05T08:40:42.989Z,1009.10
2022-10-05T08:41:43.042Z,1009.03
2022-10-05T08:42:42.982Z,1009.05
2022-10-05T08:43:43.053Z,1009.09
2022-10-05T08:44:42.932Z,1009.08
2022-10-05T08:45:42.990Z,1009.06
2022-10-05T08:46:42.958Z,1008.99
2022-10-05T08:47:42.916Z,1009.06
2022-10-05T08:48:42.874Z,1009.04
2022-10-05T08:49:42.871Z,1009.03
2022-10-05T08:50:42.892Z,1009.06
2022-10-05T08:51:42.882Z,1009.05
2022-10-05T08:52:42.830Z,1008.96
2022-10-05T08:53:42.924Z,1008.93
2022-10-05T08:54:42.862Z,1009.01
2022-10-05T08:55:42.796Z,1009.05
2022-10-05T08:56:42.795Z,1009.03
2022-10-05T08:57:42.784Z,1009.08
2022-10-05T08:58:42.778Z,1009.03
2022-10-05T08:59:42.732Z,1009.02
2022-10-05T09:00:42.743Z,1008.99
2022-10-05T09:01:42.740Z,1008.98
2022-10-05T09:02:42.921Z,1009.00
2022-10-05T09:03:42.700Z,1009.04
2022-10-05T09:04:42.710Z,1009.01
2022-10-05T09:05:42.663Z,1009.01
2022-10-05T09:06:42.998Z,1009.02
2022-10-05T09:07:42.756Z,1008.99
2022-10-05T09:08:42.636Z,1009.00
2022-10-05T09:09:42.607Z,1008.96
2022-10-05T09:10:42.575Z,1008.96
2022-10-05T09:11:42.609Z,1008.94
2022-10-05T09:12:42.565Z,1008.93
2022-10-05T09:13:42.554Z,1008.90
2022-10-05T09:14:42.538Z,1008.94
2022-10-05T09:15:42.596Z,1008.91
2022-10-05T09:16:42.515Z,1008.91
2022-10-05T09:17:42.502Z,1008.94
2022-10-05T09:18:42.480Z,1008.85
2022-10-05T09:19:42.489Z,1008.90
2022-10-05T09:20:42.482Z,1008.84
2022-10-05T09:21:42.502Z,1008.85
2022-10-05T09:22:42.446Z,1008.82
2022-10-05T09:23:42.428Z,1008.91
2022-10-05T09:24:46.262Z,1008.84
2022-10-05T09:25:42.450Z,1008.86
2022-10-05T09:26:42.450Z,1008.84
2022-10-05T09:27:42.406Z,1008.82
2022-10-05T09:28:42.396Z,1008.82
2022-10-05T09:29:42.366Z,1008.83
2022-10-05T09:30:42.351Z,1008.84
2022-10-05T09:31:42.331Z,1008.85
2022-10-05T09:32:42.283Z,1008.81
2022-10-05T09:33:42.329Z,1008.84
2022-10-05T09:34:42.241Z,1008.82
2022-10-05T09:35:42.271Z,1008.80
2022-10-05T09:36:42.244Z,1008.82
2022-10-05T09:37:42.274Z,1008.82
2022-10-05T09:38:42.264Z,1008.79
2022-10-05T09:39:42.221Z,1008.79
2022-10-05T09:40:42.220Z,1008.78
2022-10-05T09:41:42.177Z,1008.79
2022-10-05T09:42:42.187Z,1008.70
2022-10-05T09:43:42.193Z,1008.76
2022-10-05T09:44:42.118Z,1008.75
2022-10-05T09:45:42.130Z,1008.76
2022-10-05T09:46:42.146Z,1008.79
2022-10-05T09:47:42.109Z,1008.68
2022-10-05T09:48:42.132Z,1008.74
2022-10-05T09:49:42.049Z,1008.74
2022-10-05T09:50:42.025Z,1008.75
2022-10-05T09:51:42.044Z,1008.70
2022-10-05T09:52:42.006Z,1008.67
2022-10-05T09:53:41.995Z,1008.68
2022-10-05T09:54:41.991Z,1008.64
2022-10-05T09:55:42.010Z,1008.69
2022-10-05T09:56:41.960Z,1008.72
2022-10-05T09:57:41.983Z,1008.58
2022-10-05T09:58:41.918Z,1008.63
2022-10-05T09:59:41.918Z,1008.57
2022-10-05T10:00:47.039Z,1008.61
2022-10-05T10:01:41.980Z,1008.59
2022-10-05T10:02:42.058Z,1008.56
2022-10-05T10:03:41.869Z,1008.55
2022-10-05T10:04:41.862Z,1008.48
2022-10-05T10:05:41.845Z,1008.50
2022-10-05T10:06:41.875Z,1008.52
2022-10-05T10:07:41.811Z,1008.49
2022-10-05T10:08:41.791Z,1008.50
2022-10-05T10:09:41.774Z,1008.52
2022-10-05T10:10:41.820Z,1008.51
2022-10-05T10:11:41.780Z,1008.52
2022-10-05T10:12:41.759Z,1008.50
2022-10-05T10:13:41.737Z,1008.47
2022-10-05T10:14:41.694Z,1008.49
2022-10-05T10:15:41.765Z,1008.47
2022-10-05T10:16:41.672Z,1008.47
2022-10-05T10:17:41.770Z,1008.46
2022-10-05T10:18:41.651Z,1008.51
2022-10-05T10:19:41.631Z,1008.41
2022-10-05T10:20:41.615Z,1008.40
2022-10-05T10:21:41.605Z,1008.39
2022-10-05T10:22:43.225Z,1008.43
2022-10-05T10:23:41.582Z,1008.36
2022-10-05T10:24:41.620Z,1008.42
2022-10-05T10:25:41.587Z,1008.41
2022-10-05T10:26:41.530Z,1008.40
2022-10-05T10:27:41.568Z,1008.35
2022-10-05T10:28:41.553Z,1008.40
2022-10-05T10:29:41.505Z,1008.32
2022-10-05T10:30:41.530Z,1008.34
2022-10-05T10:31:41.531Z,1008.31
2022-10-05T10:32:41.457Z,1008.30
2022-10-05T10:33:41.491Z,1008.34
2022-10-05T10:34:41.509Z,1008.37
2022-10-05T10:35:41.422Z,1008.35
2022-10-05T10:36:41.397Z,1008.29
2022-10-05T10:37:41.406Z,1008.29
2022-10-05T10:38:41.372Z,1008.30
2022-10-05T10:39:41.362Z,1008.26
2022-10-05T10:40:41.355Z,1008.28
2022-10-05T10:41:41.384Z,1008.26
2022-10-05T10:42:41.332Z,1008.29
2022-10-05T10:43:41.363Z,1008.29
2022-10-05T10:44:41.374Z,1008.25
2022-10-05T10:45:41.307Z,1008.33
2022-10-05T10:46:41.365Z,1008.31
2022-10-05T10:47:41.445Z,1008.28
2022-10-05T10:48:41.272Z,1008.29
2022-10-05T10:49:41.271Z,1008.21
2022-10-05T10:50:41.557Z,1008.23
2022-10-05T10:51:41.232Z,1008.31
2022-10-05T10:52:41.195Z,1008.28
2022-10-05T10:53:41.177Z,1008.26
2022-10-05T10:54:41.158Z,1008.22
2022-10-05T10:55:41.157Z,1008.22
2022-10-05T10:56:41.173Z,1008.22
2022-10-05T10:57:41.127Z,1008.23
2022-10-05T10:58:41.108Z,1008.20
2022-10-05T10:59:41.217Z,1008.19
2022-10-05T11:00:41.167Z,1008.17
2022-10-05T11:01:41.266Z,1008.14
2022-10-05T11:02:41.212Z,1008.16
2022-10-05T11:03:41.044Z,1008.20
2022-10-05T11:04:41.027Z,1008.06
2022-10-05T11:05:43.062Z,1008.08
2022-10-05T11:06:41.012Z,1008.06
2022-10-05T11:07:41.018Z,1008.01
2022-10-05T11:08:40.978Z,1008.07
2022-10-05T11:09:41.041Z,1008.10
2022-10-05T11:10:40.988Z,1008.08
2022-10-05T11:11:40.978Z,1008.08
2022-10-05T11:12:40.935Z,1008.10
2022-10-05T11:13:40.925Z,1008.08
2022-10-05T11:14:40.916Z,1008.07
2022-10-05T11:15:40.953Z,1008.10
2022-10-05T11:16:40.881Z,1008.07
2022-10-05T11:17:40.866Z,1008.04
2022-10-05T11:18:40.873Z,1008.08
2022-10-05T11:19:59.541Z,1008.05
2022-10-05T11:20:40.863Z,1008.03
2022-10-05T11:21:40.814Z,1007.97
2022-10-05T11:22:40.888Z,1007.89
2022-10-05T11:23:40.834Z,1007.95
2022-10-05T11:24:40.762Z,1007.92
2022-10-05T11:25:40.754Z,1007.88
2022-10-05T11:26:40.788Z,1007.89
2022-10-05T11:27:40.747Z,1007.90
2022-10-05T11:28:40.785Z,1007.81
2022-10-05T11:29:40.711Z,1007.76
2022-10-05T11:30:40.711Z,1007.74
2022-10-05T11:31:40.753Z,1007.76
2022-10-05T11:32:40.692Z,1007.81
2022-10-05T11:33:40.654Z,1007.76
2022-10-05T11:34:40.643Z,1007.66
2022-10-05T11:35:40.660Z,1007.72
2022-10-05T11:36:40.617Z,1007.63
2022-10-05T11:37:40.673Z,1007.63
2022-10-05T11:38:40.590Z,1007.58
2022-10-05T11:39:40.603Z,1007.50
2022-10-05T11:40:40.562Z,1007.53
2022-10-05T11:41:40.571Z,1007.52
2022-10-05T11:42:40.556Z,1007.52
2022-10-05T11:43:40.545Z,1007.47
2022-10-05T11:44:40.518Z,1007.41
2022-10-05T11:45:40.498Z,1007.40
2022-10-05T11:46:40.519Z,1007.37
2022-10-05T11:47:40.463Z,1007.37
2022-10-05T11:48:40.543Z,1007.34
2022-10-05T11:49:40.503Z,1007.34
2022-10-05T11:50:40.442Z,1007.30
2022-10-05T11:51:40.415Z,1007.27
2022-10-05T11:52:40.389Z,1007.26
2022-10-05T11:53:40.429Z,1007.21
2022-10-05T11:55:05.935Z,1007.23
2022-10-05T11:55:40.377Z,1007.17
2022-10-05T11:56:40.411Z,1007.16
2022-10-05T11:57:40.336Z,1007.22
2022-10-05T11:58:40.312Z,1007.23
2022-10-05T11:59:40.334Z,1007.19
2022-10-05T12:00:40.291Z,1007.14
2022-10-05T12:01:40.297Z,1007.06
2022-10-05T12:02:42.943Z,1007.13
2022-10-05T12:03:40.422Z,1007.12
2022-10-05T12:04:40.235Z,1007.12
2022-10-05T12:05:40.240Z,1007.18